KBCB/BCB METAR and TAF weather

Enter ICAO airport designator
Station Type Date Time Source
KBCB METAR 2021/08/01 17:35 UTC NOAA

KBCB 011735Z AUTO 30007KT 260V330 10SM SCT029 SCT037 SCT080 26/19 A2998 RMK AO2 LTG DSNT NW T02550186


Station Type Date Time Source
KBCB Decoded METAR 2021/08/01 17:35 UTC NOAA

Virginia Tech Airport, VA, United States (KBCB) 37-13N 080-25W
Aug 01, 2021 - 01:35 PM EDT / 2021.08.01 1735 UTC
Wind: from the WNW (300 degrees) at 8 MPH (7 KT) (direction variable):0
Visibility: 10 mile(s):0
Sky conditions: partly cloudy
Weather: Lightning observed
Temperature: 77.9 F (25.5 C)
Dew Point: 65.5 F (18.6 C)
Relative Humidity: 65%
Pressure (altimeter): 29.98 in. Hg (1015 hPa)
ob: KBCB 011735Z AUTO 30007KT 260V330 10SM SCT029 SCT037 SCT080 26/19 A2998 RMK AO2 LTG DSNT NW T02550186
cycle: 17

Station Type Date Time Source
KBCB TAF 2021/08/01 12:30 UTC NOAA

TAF KBCB 011127Z 0112/0212 00000KT P6SM VCSH FEW040 OVC070
TEMPO 0112/0114 5SM -SHRA BR OVC040
FM011400 VRB03KT P6SM VCSH BKN035
FM011700 29006KT P6SM BKN035
FM020200 VRB04KT P6SM FEW250

Example: see airport list